Radiance Of The Seas — C6SE7 — position and weather

sailwx.info

Track history (hours):
 
Tides and Currents Weather Stations Pressure Air Temp Water Temp Dewpoint Dewpoint Depression Visibility Wind Speed Wind Dir Waves Ship Positions

Radiance Of The Seas

Operator: Royal Caribbean Cruises Ltd

Last reported at 2015-Jan-22 03:00 UTC. Time now 2015-Jan-27 10:19 UTC.
Position S 25°12' E 162°48'.

Type: Passenger vessel. MMSI: 311319000.

Wind from 240 at 14 knots

Barometer 1007.0 mb
Air temperature 25.0 ° C
Visibility: greater than 5.4 NM
Water temperature 26.0 ° C

Date/timePositionNaut miles runAvg speedWind from/ knotsBaromVisibWave heightAir tempDewpointWater temp
2015-Jan-22 03:00S 25°12' E 162°48'6817.1 240 / 141007.0 5.4 25.0 26.0
2015-Jan-21 23:00S 26°00' E 161°54'8521.3 140 / 241009.0 5.4 3.024.0 25.0
2015-Jan-21 19:00S 27°06' E 160°54'20618.8 150 / 341015.0 1.1 4.023.5 25.2
2015-Jan-21 08:00S 29°30' E 158°06'1615.9 110 / 261011.0 5.4 3.024.0 26.0
2015-Jan-21 07:00S 29°42' E 157°54'2424.0 080 / 271015.0 1.1 2.023.4 25.0
2015-Jan-21 06:00S 29°54' E 157°30'21119.2 110 / 371015.0 1.1 2.023.0 25.0
2015-Jan-20 19:00S 32°18' E 154°30'233 7.8 040 / 251014.0 1.1 1.022.9 25.0
2015-Jan-19 13:05S 35°03' E 151°12'1116.3
2015-Jan-19 12:23S 35°14' E 151°09'1716.3
2015-Jan-19 11:21S 35°30' E 151°03'2125.0
2015-Jan-19 10:32S 35°50' E 150°57'1816.5
2015-Jan-19 09:27S 36°07' E 150°50'8 7.9
2015-Jan-19 08:29S 36°14' E 150°48'510.2
2015-Jan-19 08:00S 36°12' E 150°42'1834.9 100 / 171021.0 1.1 1.018.6 21.8
2015-Jan-19 07:29S 36°30' E 150°40'1816.6
2015-Jan-19 06:24S 36°47' E 150°32'1510.6
2015-Jan-19 05:00S 37°00' E 150°24'1929.7 110 / 111021.0 2.2 17.3
2015-Jan-19 04:22S 37°18' E 150°17'1316.3
2015-Jan-19 03:33S 37°29' E 150°09'3 4.4
2015-Jan-19 03:00S 37°30' E 150°06'1432.1 200 / 141018.0 5.4 17.0 21.0
2015-Jan-19 02:33S 37°43' E 149°57'1716.6
2015-Jan-19 01:32S 37°55' E 149°43'7322.2
2015-Jan-18 22:15S 38°39' E 148°29'1317.3
2015-Jan-18 21:32S 38°46' E 148°16'9 8.3
2015-Jan-18 20:30S 38°49' E 148°05'4 8.7
2015-Jan-18 20:00S 38°48' E 148°00'1926.7 20.0 18.0
2015-Jan-18 19:17S 38°56' E 147°38'1114.6
2015-Jan-18 18:33S 38°60' E 147°25'6 9.8
2015-Jan-18 18:00S 39°00' E 147°18'1329.7 210 / 211019.0 2.2 1.013.0 17.0
2015-Jan-18 17:33S 39°06' E 147°03'1818.2
2015-Jan-18 16:33S 39°13' E 146°42'1918.8
2015-Jan-18 15:34S 39°16' E 146°18'1818.4
2015-Jan-18 14:34S 39°07' E 145°57'1918.4
2015-Jan-18 13:31S 38°57' E 145°36'1918.3
2015-Jan-18 12:29S 38°47' E 145°16'2222.4
2015-Jan-18 11:30S 38°35' E 144°52'1412.9
2015-Jan-18 10:27S 38°26' E 144°39'8 8.3
2015-Jan-18 09:26S 38°17' E 144°41'1211.5
2015-Jan-18 08:26S 38°14' E 144°55'1817.3
2015-Jan-18 07:25S 37°56' E 144°56'5 6.0
2015-Jan-18 06:33S 37°51' E 144°56'0 0.0
2015-Jan-18 05:30S 37°51' E 144°56'0 0.0
2015-Jan-18 04:27S 37°51' E 144°56'0 0.0
2015-Jan-18 03:24S 37°51' E 144°56'0 0.0
2015-Jan-18 02:15S 37°51' E 144°56'0 0.0
2015-Jan-18 01:33S 37°51' E 144°56'0 0.0
2015-Jan-18 00:27S 37°51' E 144°56'0 0.0
2015-Jan-17 23:30S 37°51' E 144°56'0 0.0
2015-Jan-17 22:24S 37°51' E 144°56'0 0.0
2015-Jan-17 21:33S 37°51' E 144°56'4 3.7
2015-Jan-17 20:32S 37°55' E 144°56'1210.8
2015-Jan-17 19:28S 38°06' E 144°56'1414.9
2015-Jan-17 18:31S 38°19' E 144°50'1515.9
2015-Jan-17 17:33S 38°25' E 144°32'9 8.0
2015-Jan-17 16:23S 38°34' E 144°33'1720.1
2015-Jan-17 15:33S 38°49' E 144°43'6 5.6
2015-Jan-17 14:31S 38°54' E 144°46'1413.1
2015-Jan-17 13:28S 39°06' E 144°56'1818.7
2015-Jan-17 12:31S 39°22' E 145°07'9 9.3
2015-Jan-17 11:30S 39°30' E 145°12'5311.7
2015-Jan-17 07:00S 40°12' E 145°54'4919.7 250 / 471005.0 1.1 4.015.3 17.1
2015-Jan-17 04:30S 40°45' E 146°42'10 8.7
2015-Jan-17 03:21S 40°50' E 146°53'1335.5
2015-Jan-17 03:00S 40°42' E 147°06'510.7 270 / 50999.0 5.4 15.0 17.0
2015-Jan-17 02:30S 40°47' E 147°09'4916.0
2015-Jan-16 23:24S 40°42' E 148°14'1212.3
2015-Jan-16 22:24S 40°50' E 148°27'7 7.4
2015-Jan-16 21:26S 40°57' E 148°28'1414.4
2015-Jan-16 20:28S 41°11' E 148°28'817.3
2015-Jan-16 20:00S 41°18' E 148°24'814.0 290 / 26994.0 5.4 2.014.0 18.0
2015-Jan-16 19:23S 41°26' E 148°28'2124.6
2015-Jan-16 18:32S 41°47' E 148°27'1120.1
2015-Jan-16 18:00S 41°36' E 148°24'2456.0 270 / 301011.0 2.2 2.014.0 17.0
2015-Jan-16 17:33S 42°00' E 148°26'7 6.2
2015-Jan-16 16:28S 42°07' E 148°26'1414.3
2015-Jan-16 15:28S 42°21' E 148°25'1514.7
2015-Jan-16 14:26S 42°36' E 148°20'2322.7
2015-Jan-16 13:26S 42°58' E 148°12'1010.6
2015-Jan-16 12:32S 43°07' E 148°09'1210.0
2015-Jan-16 11:17S 43°17' E 147°58'1315.5
2015-Jan-16 10:27S 43°14' E 147°41'1615.9
2015-Jan-16 09:26S 43°04' E 147°23'11 9.4
2015-Jan-16 08:17S 42°53' E 147°20'0 0.0
2015-Jan-16 07:20S 42°53' E 147°20'0 0.0
2015-Jan-16 06:29S 42°53' E 147°20'510.7
2015-Jan-16 06:00S 42°48' E 147°18'511.4 280 / 22995.0 2.2 16.0 17.0
2015-Jan-16 05:32S 42°53' E 147°20'0 0.0
2015-Jan-16 04:26S 42°53' E 147°20'511.9
2015-Jan-16 04:00S 42°48' E 147°18'5 7.9 300 / 13998.0 2.2 15.0 18.0
2015-Jan-16 03:20S 42°53' E 147°20'0 0.0
2015-Jan-16 02:29S 42°53' E 147°20'0 0.0
2015-Jan-16 01:23S 42°53' E 147°20'0 0.0
2015-Jan-16 00:32S 42°53' E 147°20'0 0.0
2015-Jan-15 23:26S 42°53' E 147°20'0 0.0
2015-Jan-15 22:32S 42°53' E 147°20'0 0.0
2015-Jan-15 21:28S 42°53' E 147°21'1 1.1
2015-Jan-15 20:29S 42°54' E 147°22'1514.5
2015-Jan-15 19:27S 43°07' E 147°29'1817.9
2015-Jan-15 18:26S 43°16' E 147°51'1314.8
2015-Jan-15 17:32S 43°08' E 148°05'1817.9
2015-Jan-15 16:31S 42°51' E 148°12'2118.2
2015-Jan-15 15:20S 42°30' E 148°21'1918.1
2015-Jan-15 14:19S 42°13' E 148°28'15020.4
2015-Jan-15 07:00S 39°48' E 149°18'2020.2 270 / 751004.0 2.2 4.017.7 19.0
2015-Jan-15 06:00S 39°30' E 149°30'3712.4 270 / 751004.0 2.2 4.017.7 19.0
2015-Jan-15 03:00S 38°54' E 149°42'1918.6 270 / 551001.0 5.4 18.0 20.0
2015-Jan-15 02:00S 38°36' E 149°48'5716.2 250 / 411000.0 5.4 4.018.0 22.0
2015-Jan-14 22:29S 37°43' E 150°16'816.5
2015-Jan-14 22:00S 37°36' E 150°12'1322.8 250 / 591000.0 5.4 4.018.0 22.0
2015-Jan-14 21:25S 37°26' E 150°23'2318.4
2015-Jan-14 20:08S 37°04' E 150°32'428.6
2015-Jan-14 20:00S 37°00' E 150°30'2625.9 250 / 30 18.9
2015-Jan-14 19:00S 36°36' E 150°42'20118.4 220 / 381001.0 1.1 3.019.4 21.8
2015-Jan-14 08:06S 33°24' E 151°55'1818.5
2015-Jan-14 07:07S 33°06' E 151°53'1018.1
2015-Jan-14 06:33S 32°56' E 151°51'4 0.8
2015-Jan-14 01:20S 32°55' E 151°47'0 0.0
2015-Jan-13 21:26S 32°55' E 151°47'0 0.1
2015-Jan-13 20:33S 32°55' E 151°47'5 5.0
2015-Jan-13 19:29S 32°60' E 151°50'9 6.2
2015-Jan-13 18:00S 33°06' E 151°42'10 5.1 360 / 241002.0 2.2 2.022.0 21.0
2015-Jan-13 16:04S 33°09' E 151°53'5 8.4
2015-Jan-13 15:32S 33°05' E 151°55'6 5.5
2015-Jan-13 14:25S 33°04' E 151°48'53 3.1
2015-Jan-12 21:00S 33°48' E 151°12'6510.0 290 / 21007.0 2.2 20.0 22.0
2015-Jan-12 14:29S 33°13' E 152°18'1516.1
2015-Jan-12 13:33S 33°03' E 152°32'1816.5
2015-Jan-12 12:27S 32°51' E 152°48'9517.4
2015-Jan-12 07:00S 31°48' E 154°12'   210 / 81011.0 1.1 1.023.0 25.0
Track history (hours):
 
Tides and Currents Weather Stations Pressure Air Temp Water Temp Dewpoint Dewpoint Depression Visibility Wind Speed Wind Dir Waves Ship Positions

Radiance Of The Seas

Operator: Royal Caribbean Cruises Ltd

Last reported at 2015-Jan-22 03:00 UTC. Time now 2015-Jan-27 10:19 UTC.
Position S 25°12' E 162°48'.

Type: Passenger vessel. MMSI: 311319000.

Wind from 240 at 14 knots

Barometer 1007.0 mb
Air temperature 25.0 ° C
Visibility: greater than 5.4 NM
Water temperature 26.0 ° C

Date/timePositionNaut miles runAvg speedWind from/ knotsBaromVisibWave heightAir tempDewpointWater temp
2015-Jan-22 03:00S 25°12' E 162°48'6817.1 240 / 141007.0 5.4 25.0 26.0
2015-Jan-21 23:00S 26°00' E 161°54'8521.3 140 / 241009.0 5.4 3.024.0 25.0
2015-Jan-21 19:00S 27°06' E 160°54'20618.8 150 / 341015.0 1.1 4.023.5 25.2
2015-Jan-21 08:00S 29°30' E 158°06'1615.9 110 / 261011.0 5.4 3.024.0 26.0
2015-Jan-21 07:00S 29°42' E 157°54'2424.0 080 / 271015.0 1.1 2.023.4 25.0
2015-Jan-21 06:00S 29°54' E 157°30'21119.2 110 / 371015.0 1.1 2.023.0 25.0
2015-Jan-20 19:00S 32°18' E 154°30'233 7.8 040 / 251014.0 1.1 1.022.9 25.0
2015-Jan-19 13:05S 35°03' E 151°12'1116.3
2015-Jan-19 12:23S 35°14' E 151°09'1716.3
2015-Jan-19 11:21S 35°30' E 151°03'2125.0
2015-Jan-19 10:32S 35°50' E 150°57'1816.5
2015-Jan-19 09:27S 36°07' E 150°50'8 7.9
2015-Jan-19 08:29S 36°14' E 150°48'510.2
2015-Jan-19 08:00S 36°12' E 150°42'1834.9 100 / 171021.0 1.1 1.018.6 21.8
2015-Jan-19 07:29S 36°30' E 150°40'1816.6
2015-Jan-19 06:24S 36°47' E 150°32'1510.6
2015-Jan-19 05:00S 37°00' E 150°24'1929.7 110 / 111021.0 2.2 17.3
2015-Jan-19 04:22S 37°18' E 150°17'1316.3
2015-Jan-19 03:33S 37°29' E 150°09'3 4.4
2015-Jan-19 03:00S 37°30' E 150°06'1432.1 200 / 141018.0 5.4 17.0 21.0
2015-Jan-19 02:33S 37°43' E 149°57'1716.6
2015-Jan-19 01:32S 37°55' E 149°43'7322.2
2015-Jan-18 22:15S 38°39' E 148°29'1317.3
2015-Jan-18 21:32S 38°46' E 148°16'9 8.3
2015-Jan-18 20:30S 38°49' E 148°05'4 8.7
2015-Jan-18 20:00S 38°48' E 148°00'1926.7 20.0 18.0
2015-Jan-18 19:17S 38°56' E 147°38'1114.6
2015-Jan-18 18:33S 38°60' E 147°25'6 9.8
2015-Jan-18 18:00S 39°00' E 147°18'1329.7 210 / 211019.0 2.2 1.013.0 17.0
2015-Jan-18 17:33S 39°06' E 147°03'1818.2
2015-Jan-18 16:33S 39°13' E 146°42'1918.8
2015-Jan-18 15:34S 39°16' E 146°18'1818.4
2015-Jan-18 14:34S 39°07' E 145°57'1918.4
2015-Jan-18 13:31S 38°57' E 145°36'1918.3
2015-Jan-18 12:29S 38°47' E 145°16'2222.4
2015-Jan-18 11:30S 38°35' E 144°52'1412.9
2015-Jan-18 10:27S 38°26' E 144°39'8 8.3
2015-Jan-18 09:26S 38°17' E 144°41'1211.5
2015-Jan-18 08:26S 38°14' E 144°55'1817.3
2015-Jan-18 07:25S 37°56' E 144°56'5 6.0
2015-Jan-18 06:33S 37°51' E 144°56'0 0.0
2015-Jan-18 05:30S 37°51' E 144°56'0 0.0
2015-Jan-18 04:27S 37°51' E 144°56'0 0.0
2015-Jan-18 03:24S 37°51' E 144°56'0 0.0
2015-Jan-18 02:15S 37°51' E 144°56'0 0.0
2015-Jan-18 01:33S 37°51' E 144°56'0 0.0
2015-Jan-18 00:27S 37°51' E 144°56'0 0.0
2015-Jan-17 23:30S 37°51' E 144°56'0 0.0
2015-Jan-17 22:24S 37°51' E 144°56'0 0.0
2015-Jan-17 21:33S 37°51' E 144°56'4 3.7
2015-Jan-17 20:32S 37°55' E 144°56'1210.8
2015-Jan-17 19:28S 38°06' E 144°56'1414.9
2015-Jan-17 18:31S 38°19' E 144°50'1515.9
2015-Jan-17 17:33S 38°25' E 144°32'9 8.0
2015-Jan-17 16:23S 38°34' E 144°33'1720.1
2015-Jan-17 15:33S 38°49' E 144°43'6 5.6
2015-Jan-17 14:31S 38°54' E 144°46'1413.1
2015-Jan-17 13:28S 39°06' E 144°56'1818.7
2015-Jan-17 12:31S 39°22' E 145°07'9 9.3
2015-Jan-17 11:30S 39°30' E 145°12'5311.7
2015-Jan-17 07:00S 40°12' E 145°54'4919.7 250 / 471005.0 1.1 4.015.3 17.1
2015-Jan-17 04:30S 40°45' E 146°42'10 8.7
2015-Jan-17 03:21S 40°50' E 146°53'1335.5
2015-Jan-17 03:00S 40°42' E 147°06'510.7 270 / 50999.0 5.4 15.0 17.0
2015-Jan-17 02:30S 40°47' E 147°09'4916.0
2015-Jan-16 23:24S 40°42' E 148°14'1212.3
2015-Jan-16 22:24S 40°50' E 148°27'7 7.4
2015-Jan-16 21:26S 40°57' E 148°28'1414.4
2015-Jan-16 20:28S 41°11' E 148°28'817.3
2015-Jan-16 20:00S 41°18' E 148°24'814.0 290 / 26994.0 5.4 2.014.0 18.0
2015-Jan-16 19:23S 41°26' E 148°28'2124.6
2015-Jan-16 18:32S 41°47' E 148°27'1120.1
2015-Jan-16 18:00S 41°36' E 148°24'2456.0 270 / 301011.0 2.2 2.014.0 17.0
2015-Jan-16 17:33S 42°00' E 148°26'7 6.2
2015-Jan-16 16:28S 42°07' E 148°26'1414.3
2015-Jan-16 15:28S 42°21' E 148°25'1514.7
2015-Jan-16 14:26S 42°36' E 148°20'2322.7
2015-Jan-16 13:26S 42°58' E 148°12'1010.6
2015-Jan-16 12:32S 43°07' E 148°09'1210.0
2015-Jan-16 11:17S 43°17' E 147°58'1315.5
2015-Jan-16 10:27S 43°14' E 147°41'1615.9
2015-Jan-16 09:26S 43°04' E 147°23'11 9.4
2015-Jan-16 08:17S 42°53' E 147°20'0 0.0
2015-Jan-16 07:20S 42°53' E 147°20'0 0.0
2015-Jan-16 06:29S 42°53' E 147°20'510.7
2015-Jan-16 06:00S 42°48' E 147°18'511.4 280 / 22995.0 2.2 16.0 17.0
2015-Jan-16 05:32S 42°53' E 147°20'0 0.0
2015-Jan-16 04:26S 42°53' E 147°20'511.9
2015-Jan-16 04:00S 42°48' E 147°18'5 7.9 300 / 13998.0 2.2 15.0 18.0
2015-Jan-16 03:20S 42°53' E 147°20'0 0.0
2015-Jan-16 02:29S 42°53' E 147°20'0 0.0
2015-Jan-16 01:23S 42°53' E 147°20'0 0.0
2015-Jan-16 00:32S 42°53' E 147°20'0 0.0
2015-Jan-15 23:26S 42°53' E 147°20'0 0.0
2015-Jan-15 22:32S 42°53' E 147°20'0 0.0
2015-Jan-15 21:28S 42°53' E 147°21'1 1.1
2015-Jan-15 20:29S 42°54' E 147°22'1514.5
2015-Jan-15 19:27S 43°07' E 147°29'1817.9
2015-Jan-15 18:26S 43°16' E 147°51'1314.8
2015-Jan-15 17:32S 43°08' E 148°05'1817.9
2015-Jan-15 16:31S 42°51' E 148°12'2118.2
2015-Jan-15 15:20S 42°30' E 148°21'1918.1
2015-Jan-15 14:19S 42°13' E 148°28'15020.4
2015-Jan-15 07:00S 39°48' E 149°18'2020.2 270 / 751004.0 2.2 4.017.7 19.0
2015-Jan-15 06:00S 39°30' E 149°30'3712.4 270 / 751004.0 2.2 4.017.7 19.0
2015-Jan-15 03:00S 38°54' E 149°42'1918.6 270 / 551001.0 5.4 18.0 20.0
2015-Jan-15 02:00S 38°36' E 149°48'5716.2 250 / 411000.0 5.4 4.018.0 22.0
2015-Jan-14 22:29S 37°43' E 150°16'816.5
2015-Jan-14 22:00S 37°36' E 150°12'1322.8 250 / 591000.0 5.4 4.018.0 22.0
2015-Jan-14 21:25S 37°26' E 150°23'2318.4
2015-Jan-14 20:08S 37°04' E 150°32'428.6
2015-Jan-14 20:00S 37°00' E 150°30'2625.9 250 / 30 18.9
2015-Jan-14 19:00S 36°36' E 150°42'20118.4 220 / 381001.0 1.1 3.019.4 21.8
2015-Jan-14 08:06S 33°24' E 151°55'1818.5
2015-Jan-14 07:07S 33°06' E 151°53'1018.1
2015-Jan-14 06:33S 32°56' E 151°51'4 0.8
2015-Jan-14 01:20S 32°55' E 151°47'0 0.0
2015-Jan-13 21:26S 32°55' E 151°47'0 0.1
2015-Jan-13 20:33S 32°55' E 151°47'5 5.0
2015-Jan-13 19:29S 32°60' E 151°50'9 6.2
2015-Jan-13 18:00S 33°06' E 151°42'10 5.1 360 / 241002.0 2.2 2.022.0 21.0
2015-Jan-13 16:04S 33°09' E 151°53'5 8.4
2015-Jan-13 15:32S 33°05' E 151°55'6 5.5
2015-Jan-13 14:25S 33°04' E 151°48'53 3.1
2015-Jan-12 21:00S 33°48' E 151°12'6510.0 290 / 21007.0 2.2 20.0 22.0
2015-Jan-12 14:29S 33°13' E 152°18'1516.1
2015-Jan-12 13:33S 33°03' E 152°32'1816.5
2015-Jan-12 12:27S 32°51' E 152°48'9517.4
2015-Jan-12 07:00S 31°48' E 154°12'   210 / 81011.0 1.1 1.023.0 25.0

Dump ship's entire track history